createdAt,value
2023-01-27T00:00:01.225Z,15.63
2023-01-27T00:00:33.202Z,14.18
2023-01-27T00:01:06.435Z,13.95
2023-01-27T00:01:38.207Z,12.18
2023-01-27T00:02:10.021Z,13.60
2023-01-27T00:02:43.034Z,10.23
2023-01-27T00:03:15.865Z,11.57
2023-01-27T00:03:47.740Z,14.70
2023-01-27T00:04:19.595Z,13.02
2023-01-27T00:04:52.359Z,11.50
2023-01-27T00:05:24.187Z,16.27
2023-01-27T00:06:00.984Z,12.30
2023-01-27T00:06:32.833Z,11.63
2023-01-27T00:07:04.674Z,11.10
2023-01-27T00:07:36.943Z,13.00
2023-01-27T00:08:09.788Z,13.18
2023-01-27T00:08:41.645Z,10.60
2023-01-27T00:09:13.460Z,11.05
2023-01-27T00:09:46.248Z,11.60
2023-01-27T00:10:20.532Z,12.95
2023-01-27T00:11:13.304Z,11.70
2023-01-27T00:12:03.587Z,10.40
2023-01-27T00:12:54.115Z,11.10
2023-01-27T00:13:28.824Z,10.90
2023-01-27T00:14:00.643Z,9.93
2023-01-27T00:14:32.425Z,11.15
2023-01-27T00:15:05.823Z,9.98
2023-01-27T00:15:38.658Z,10.88
2023-01-27T00:16:10.512Z,9.50
2023-01-27T00:16:42.365Z,9.90
2023-01-27T00:17:15.137Z,11.63
2023-01-27T00:17:46.922Z,10.18
2023-01-27T00:18:18.728Z,9.43
2023-01-27T00:18:50.530Z,11.70
2023-01-27T00:19:23.294Z,9.75
2023-01-27T00:19:55.094Z,9.55
2023-01-27T00:20:45.726Z,8.13
2023-01-27T00:21:37.602Z,9.30
2023-01-27T00:22:28.081Z,10.75
2023-01-27T00:23:18.542Z,8.52
2023-01-27T00:24:09.033Z,7.90
2023-01-27T00:24:42.349Z,9.20
2023-01-27T00:25:14.184Z,10.70
2023-01-27T00:25:50.360Z,8.52
2023-01-27T00:26:23.170Z,9.45
2023-01-27T00:26:54.963Z,11.25
2023-01-27T00:27:27.192Z,7.65
2023-01-27T00:27:59.946Z,9.57
2023-01-27T00:28:31.987Z,10.40
2023-01-27T00:29:03.842Z,8.50
2023-01-27T00:29:36.853Z,8.63
2023-01-27T00:30:10.698Z,8.18
2023-01-27T00:30:42.658Z,10.80
2023-01-27T00:31:34.950Z,8.98
2023-01-27T00:32:25.409Z,7.68
2023-01-27T00:33:15.811Z,11.65
2023-01-27T00:33:49.438Z,10.52
2023-01-27T00:34:21.277Z,9.75
2023-01-27T00:34:53.086Z,8.65
2023-01-27T00:35:26.257Z,10.15
2023-01-27T00:35:59.871Z,8.38
2023-01-27T00:36:33.018Z,8.25
2023-01-27T00:37:05.931Z,10.40
2023-01-27T00:37:37.766Z,8.90
2023-01-27T00:38:09.776Z,9.63
2023-01-27T00:38:42.782Z,11.95
2023-01-27T00:39:14.573Z,9.00
2023-01-27T00:39:46.373Z,9.80
2023-01-27T00:40:19.173Z,8.30
2023-01-27T00:41:05.914Z,10.80
2023-01-27T00:41:37.920Z,9.98
2023-01-27T00:42:11.105Z,9.23
2023-01-27T00:42:43.327Z,9.38
2023-01-27T00:43:15.108Z,8.88
2023-01-27T00:43:49.021Z,10.77
2023-01-27T00:44:20.862Z,7.93
2023-01-27T00:45:11.367Z,11.27
2023-01-27T00:45:49.133Z,7.90
2023-01-27T00:46:23.724Z,9.38
2023-01-27T00:46:55.539Z,7.82
2023-01-27T00:47:27.354Z,9.70
2023-01-27T00:48:00.138Z,8.90
2023-01-27T00:48:32.060Z,10.85
2023-01-27T00:49:03.923Z,13.25
2023-01-27T00:49:36.814Z,13.50
2023-01-27T00:50:10.189Z,10.63
2023-01-27T00:50:42.943Z,13.48
2023-01-27T00:51:16.673Z,21.90
2023-01-27T00:51:49.853Z,38.63
2023-01-27T00:52:22.638Z,39.92
2023-01-27T00:52:54.508Z,33.90
2023-01-27T00:53:26.436Z,28.08
2023-01-27T00:53:59.668Z,26.42
2023-01-27T00:54:31.504Z,20.20
2023-01-27T00:55:03.411Z,15.57
2023-01-27T00:55:36.200Z,9.98
2023-01-27T00:56:08.931Z,11.52
2023-01-27T00:56:40.994Z,8.68
2023-01-27T00:57:13.765Z,9.68
2023-01-27T00:57:45.555Z,9.40
2023-01-27T00:58:17.395Z,9.32
2023-01-27T00:58:50.106Z,10.23
2023-01-27T00:59:22.973Z,9.90
2023-01-27T00:59:54.779Z,9.65
2023-01-27T01:00:27.661Z,9.57
2023-01-27T01:01:03.533Z,8.13
2023-01-27T01:01:35.463Z,10.20
2023-01-27T01:02:08.329Z,11.48
2023-01-27T01:02:40.214Z,10.07
2023-01-27T01:03:12.157Z,11.60
2023-01-27T01:03:46.049Z,9.30
2023-01-27T01:04:17.892Z,9.95
2023-01-27T01:04:49.722Z,10.68
2023-01-27T01:05:22.547Z,8.90
2023-01-27T01:05:54.427Z,9.77
2023-01-27T01:06:27.325Z,9.23
2023-01-27T01:07:01.567Z,9.70
2023-01-27T01:07:33.438Z,8.10
2023-01-27T01:08:05.301Z,10.57
2023-01-27T01:08:38.918Z,10.23
2023-01-27T01:09:10.748Z,10.60
2023-01-27T01:09:42.538Z,10.00
2023-01-27T01:10:15.668Z,7.35
2023-01-27T01:10:47.585Z,10.07
2023-01-27T01:11:20.907Z,9.25
2023-01-27T01:11:53.698Z,8.68
2023-01-27T01:12:25.558Z,8.88
2023-01-27T01:12:57.399Z,6.60
2023-01-27T01:13:29.426Z,8.57
2023-01-27T01:14:02.225Z,8.75
2023-01-27T01:14:34.083Z,10.60
2023-01-27T01:15:06.804Z,7.45
2023-01-27T01:15:40.397Z,6.72
2023-01-27T01:16:14.467Z,8.52
2023-01-27T01:16:47.372Z,9.43
2023-01-27T01:17:19.181Z,11.20
2023-01-27T01:17:51.053Z,9.20
2023-01-27T01:18:24.725Z,8.32
2023-01-27T01:18:58.353Z,7.57
2023-01-27T01:19:30.303Z,8.35
2023-01-27T01:20:02.258Z,8.13
2023-01-27T01:20:38.123Z,6.78
2023-01-27T01:21:10.564Z,10.07
2023-01-27T01:21:42.425Z,7.75
2023-01-27T01:22:16.622Z,7.35
2023-01-27T01:22:48.424Z,8.18
2023-01-27T01:23:20.207Z,8.25
2023-01-27T01:23:53.032Z,7.57
2023-01-27T01:24:26.037Z,8.13
2023-01-27T01:24:57.937Z,7.10
2023-01-27T01:25:30.785Z,8.07
2023-01-27T01:26:02.602Z,7.72
2023-01-27T01:26:34.433Z,7.85
2023-01-27T01:27:07.204Z,8.85
2023-01-27T01:27:39.019Z,8.15
2023-01-27T01:28:10.889Z,7.65
2023-01-27T01:28:45.255Z,7.18
2023-01-27T01:29:17.090Z,8.95
2023-01-27T01:29:48.954Z,8.40
2023-01-27T01:30:21.763Z,7.70
2023-01-27T01:30:53.653Z,8.60
2023-01-27T01:31:25.562Z,8.38
2023-01-27T01:31:58.595Z,7.35
2023-01-27T01:32:30.392Z,7.07
2023-01-27T01:33:02.262Z,8.90
2023-01-27T01:33:35.182Z,6.97
2023-01-27T01:34:07.046Z,8.57
2023-01-27T01:34:38.881Z,9.73
2023-01-27T01:35:11.764Z,9.18
2023-01-27T01:35:43.836Z,8.10
2023-01-27T01:36:17.605Z,10.40
2023-01-27T01:36:50.389Z,9.05
2023-01-27T01:37:23.544Z,6.65
2023-01-27T01:37:55.618Z,7.88
2023-01-27T01:38:28.444Z,9.02
2023-01-27T01:39:00.279Z,7.93
2023-01-27T01:39:32.813Z,9.88
2023-01-27T01:40:06.696Z,9.63
2023-01-27T01:40:40.888Z,10.68
2023-01-27T01:41:14.510Z,8.15
2023-01-27T01:41:47.350Z,9.65
2023-01-27T01:42:19.231Z,9.00
2023-01-27T01:42:56.576Z,9.55
2023-01-27T01:43:29.352Z,9.90
2023-01-27T01:44:19.845Z,10.45
2023-01-27T01:45:15.214Z,13.13
2023-01-27T01:45:51.137Z,8.40
2023-01-27T01:46:24.114Z,11.85
2023-01-27T01:46:56.057Z,10.73
2023-01-27T01:47:27.975Z,10.65
2023-01-27T01:48:02.622Z,8.93
2023-01-27T01:48:37.669Z,11.25
2023-01-27T01:49:10.991Z,10.25
2023-01-27T01:49:44.087Z,11.38
2023-01-27T01:50:16.102Z,10.80
2023-01-27T01:50:53.834Z,12.77
2023-01-27T01:51:28.845Z,10.25
2023-01-27T01:52:06.588Z,9.50
2023-01-27T01:52:38.459Z,10.18
2023-01-27T01:53:11.911Z,9.45
2023-01-27T01:53:52.016Z,9.10
2023-01-27T01:54:27.378Z,11.07
2023-01-27T01:54:59.203Z,11.60
2023-01-27T01:55:34.934Z,10.55
2023-01-27T01:56:11.956Z,9.05
2023-01-27T01:56:48.533Z,11.60
2023-01-27T01:57:25.189Z,10.60
2023-01-27T01:57:57.007Z,10.95
2023-01-27T01:58:30.458Z,11.23
2023-01-27T01:59:07.553Z,11.88
2023-01-27T01:59:43.711Z,9.35
2023-01-27T02:00:17.342Z,12.93
2023-01-27T02:00:50.526Z,11.05
2023-01-27T02:01:22.465Z,11.25
2023-01-27T02:01:57.909Z,8.98
2023-01-27T02:02:31.378Z,9.68
2023-01-27T02:03:04.264Z,11.70
2023-01-27T02:03:41.982Z,10.70
2023-01-27T02:04:18.413Z,10.15
2023-01-27T02:04:56.697Z,10.20
2023-01-27T02:05:32.564Z,8.10
2023-01-27T02:06:05.663Z,10.65
2023-01-27T02:06:44.791Z,11.40
2023-01-27T02:07:20.873Z,11.82
2023-01-27T02:07:57.854Z,10.60
2023-01-27T02:08:34.855Z,9.25
2023-01-27T02:09:06.994Z,13.75
2023-01-27T02:09:39.590Z,8.57
2023-01-27T02:10:13.383Z,9.07
2023-01-27T02:10:45.784Z,8.98
2023-01-27T02:11:18.117Z,10.05
2023-01-27T02:11:51.510Z,8.93
2023-01-27T02:12:23.399Z,9.27
2023-01-27T02:12:55.261Z,8.63
2023-01-27T02:13:28.113Z,10.05
2023-01-27T02:14:01.824Z,9.90
2023-01-27T02:14:33.948Z,13.13
2023-01-27T02:15:08.667Z,10.18
2023-01-27T02:15:40.685Z,8.57
2023-01-27T02:16:14.251Z,9.85
2023-01-27T02:16:47.304Z,10.88
2023-01-27T02:17:19.192Z,10.27
2023-01-27T02:17:51.161Z,9.98
2023-01-27T02:18:23.084Z,9.02
2023-01-27T02:18:55.883Z,11.57
2023-01-27T02:19:38.832Z,10.38
2023-01-27T02:20:19.720Z,11.77
2023-01-27T02:20:54.797Z,9.07
2023-01-27T02:21:26.677Z,10.25
2023-01-27T02:21:59.615Z,9.98
2023-01-27T02:22:40.653Z,8.80
2023-01-27T02:23:36.925Z,11.73
2023-01-27T02:24:12.698Z,8.93
2023-01-27T02:24:49.084Z,10.60
2023-01-27T02:25:26.488Z,14.30
2023-01-27T02:26:06.260Z,11.55
2023-01-27T02:26:41.255Z,8.63
2023-01-27T02:27:14.239Z,9.65
2023-01-27T02:27:47.022Z,10.00
2023-01-27T02:28:19.149Z,11.77
2023-01-27T02:28:56.545Z,10.90
2023-01-27T02:29:29.598Z,10.45
2023-01-27T02:30:01.419Z,12.38
2023-01-27T02:30:34.098Z,11.00
2023-01-27T02:31:07.205Z,11.90
2023-01-27T02:31:39.592Z,11.77
2023-01-27T02:32:22.859Z,10.35
2023-01-27T02:32:55.718Z,10.30
2023-01-27T02:33:27.644Z,9.48
2023-01-27T02:34:04.678Z,10.10
2023-01-27T02:34:38.135Z,9.85
2023-01-27T02:35:14.168Z,9.60
2023-01-27T02:35:53.392Z,11.48
2023-01-27T02:36:29.704Z,11.32
2023-01-27T02:37:08.019Z,9.60
2023-01-27T02:37:41.001Z,9.82
2023-01-27T02:38:15.673Z,9.95
2023-01-27T02:38:50.611Z,12.05
2023-01-27T02:39:25.412Z,8.45
2023-01-27T02:40:00.509Z,7.95
2023-01-27T02:40:34.388Z,13.00
2023-01-27T02:41:12.170Z,11.82
2023-01-27T02:41:48.170Z,11.00
2023-01-27T02:42:20.075Z,7.55
2023-01-27T02:42:55.271Z,8.85
2023-01-27T02:43:28.054Z,12.00
2023-01-27T02:44:00.503Z,9.43
2023-01-27T02:44:32.401Z,9.77
2023-01-27T02:45:05.880Z,12.52
2023-01-27T02:45:37.725Z,12.63
2023-01-27T02:46:09.573Z,8.68
2023-01-27T02:46:42.372Z,10.68
2023-01-27T02:47:14.238Z,9.85
2023-01-27T02:47:46.034Z,9.52
2023-01-27T02:48:18.806Z,12.00
2023-01-27T02:48:50.651Z,8.63
2023-01-27T02:49:22.496Z,9.80
2023-01-27T02:49:55.343Z,11.30
2023-01-27T02:50:27.273Z,9.88
2023-01-27T02:50:59.391Z,12.30
2023-01-27T02:51:32.298Z,8.57
2023-01-27T02:52:04.354Z,7.78
2023-01-27T02:52:36.166Z,11.48
2023-01-27T02:53:08.038Z,30.55
2023-01-27T02:53:41.068Z,49.70
2023-01-27T02:54:12.903Z,22.85
2023-01-27T02:54:44.770Z,10.93
2023-01-27T02:55:17.780Z,9.40
2023-01-27T02:55:49.610Z,10.23
2023-01-27T02:56:23.247Z,9.85
2023-01-27T02:56:56.048Z,10.82
2023-01-27T02:57:27.926Z,8.77
2023-01-27T02:57:59.746Z,9.40
2023-01-27T02:58:32.489Z,10.00
2023-01-27T02:59:04.379Z,10.85
2023-01-27T02:59:36.178Z,9.15
2023-01-27T03:00:09.678Z,8.43
2023-01-27T03:00:42.707Z,9.35
2023-01-27T03:01:14.875Z,8.75
2023-01-27T03:01:46.747Z,8.23
2023-01-27T03:02:22.808Z,9.00
2023-01-27T03:02:54.690Z,7.88
2023-01-27T03:03:26.520Z,7.65
2023-01-27T03:03:59.401Z,8.90
2023-01-27T03:04:31.265Z,10.25
2023-01-27T03:05:03.293Z,9.88
2023-01-27T03:05:35.167Z,10.93
2023-01-27T03:06:08.117Z,10.20
2023-01-27T03:06:39.999Z,10.00
2023-01-27T03:07:11.926Z,9.98
2023-01-27T03:07:44.826Z,10.18
2023-01-27T03:08:16.910Z,11.55
2023-01-27T03:08:48.785Z,12.70
2023-01-27T03:09:21.688Z,7.50
2023-01-27T03:09:53.518Z,10.48
2023-01-27T03:10:25.434Z,9.77
2023-01-27T03:10:58.249Z,8.60
2023-01-27T03:11:49.935Z,10.55
2023-01-27T03:12:21.870Z,8.30
2023-01-27T03:12:53.713Z,9.07
2023-01-27T03:13:30.328Z,8.45
2023-01-27T03:14:02.188Z,10.32
2023-01-27T03:14:53.074Z,10.30
2023-01-27T03:15:43.615Z,9.43
2023-01-27T03:16:33.969Z,10.05
2023-01-27T03:17:24.409Z,10.35
2023-01-27T03:18:11.089Z,10.73
2023-01-27T03:18:47.245Z,9.52
2023-01-27T03:19:19.303Z,11.65
2023-01-27T03:19:53.293Z,11.88
2023-01-27T03:20:26.335Z,7.55
2023-01-27T03:21:02.131Z,10.65
2023-01-27T03:21:34.919Z,9.43
2023-01-27T03:22:06.714Z,9.23
2023-01-27T03:22:38.520Z,12.27
2023-01-27T03:23:11.676Z,8.70
2023-01-27T03:23:45.627Z,9.18
2023-01-27T03:24:17.489Z,10.02
2023-01-27T03:24:50.418Z,9.20
2023-01-27T03:25:22.288Z,10.45
2023-01-27T03:25:54.100Z,10.13
2023-01-27T03:26:26.858Z,11.10
2023-01-27T03:27:00.243Z,9.95
2023-01-27T03:27:32.107Z,9.80
2023-01-27T03:28:05.102Z,9.77
2023-01-27T03:28:37.031Z,9.80
2023-01-27T03:29:27.452Z,10.50
2023-01-27T03:29:59.308Z,9.13
2023-01-27T03:30:32.405Z,10.82
2023-01-27T03:31:07.186Z,12.50
2023-01-27T03:31:39.122Z,9.32
2023-01-27T03:32:10.982Z,9.55
2023-01-27T03:32:46.632Z,11.85
2023-01-27T03:33:18.602Z,11.27
2023-01-27T03:33:53.070Z,11.10
2023-01-27T03:34:25.015Z,9.70
2023-01-27T03:34:57.592Z,9.13
2023-01-27T03:35:34.344Z,9.68
2023-01-27T03:36:25.381Z,11.57
2023-01-27T03:37:15.817Z,10.93
2023-01-27T03:38:06.508Z,9.55
2023-01-27T03:38:56.968Z,8.73
2023-01-27T03:39:48.495Z,10.15
2023-01-27T03:40:39.111Z,10.20
2023-01-27T03:41:29.576Z,9.88
2023-01-27T03:42:21.325Z,12.10
2023-01-27T03:43:11.805Z,10.65
2023-01-27T03:44:02.457Z,9.82
2023-01-27T03:44:52.926Z,10.48
2023-01-27T03:45:43.353Z,9.25
2023-01-27T03:46:16.169Z,9.68
2023-01-27T03:46:48.957Z,10.80
2023-01-27T03:47:20.796Z,11.40
2023-01-27T03:47:53.655Z,10.23
2023-01-27T03:48:25.462Z,9.73
2023-01-27T03:48:57.299Z,11.40
2023-01-27T03:49:30.075Z,9.75
2023-01-27T03:50:01.945Z,12.45
2023-01-27T03:50:37.797Z,12.15
2023-01-27T03:51:11.774Z,10.18
2023-01-27T03:51:43.643Z,9.98
2023-01-27T03:52:15.473Z,9.13
2023-01-27T03:53:03.811Z,10.50
2023-01-27T03:53:36.574Z,11.35
2023-01-27T03:54:09.726Z,10.60
2023-01-27T03:54:41.646Z,10.70
2023-01-27T03:55:13.853Z,9.73
2023-01-27T03:55:46.745Z,9.70
2023-01-27T03:56:21.366Z,9.60
2023-01-27T03:56:53.179Z,12.70
2023-01-27T03:57:26.350Z,12.65
2023-01-27T03:58:14.490Z,9.52
2023-01-27T03:58:48.522Z,10.13
2023-01-27T03:59:21.482Z,11.00
2023-01-27T03:59:53.321Z,9.73
2023-01-27T04:00:25.404Z,10.63
2023-01-27T04:00:59.018Z,10.50
2023-01-27T04:01:31.895Z,11.52
2023-01-27T04:02:22.168Z,9.90
2023-01-27T04:03:12.572Z,11.50
2023-01-27T04:04:03.561Z,9.52
2023-01-27T04:04:54.055Z,8.80
2023-01-27T04:05:44.409Z,11.07
2023-01-27T04:06:36.170Z,11.70
2023-01-27T04:07:08.985Z,10.57
2023-01-27T04:07:40.796Z,11.57
2023-01-27T04:08:12.687Z,9.95
2023-01-27T04:08:44.502Z,10.10
2023-01-27T04:09:21.356Z,11.43
2023-01-27T04:09:53.168Z,11.55
2023-01-27T04:10:25.019Z,10.15
2023-01-27T04:11:17.411Z,9.93
2023-01-27T04:11:55.234Z,10.43
2023-01-27T04:12:29.392Z,13.00
2023-01-27T04:13:01.207Z,10.40
2023-01-27T04:13:33.021Z,10.07
2023-01-27T04:14:06.416Z,11.93
2023-01-27T04:14:42.086Z,11.38
2023-01-27T04:15:14.295Z,11.40
2023-01-27T04:15:46.363Z,14.02
2023-01-27T04:16:19.826Z,11.25
2023-01-27T04:16:53.875Z,11.98
2023-01-27T04:17:25.718Z,9.77
2023-01-27T04:17:57.537Z,11.07
2023-01-27T04:18:30.327Z,10.50
2023-01-27T04:19:02.538Z,12.82
2023-01-27T04:19:35.388Z,12.10
2023-01-27T04:20:08.344Z,11.57
2023-01-27T04:20:40.190Z,11.57
2023-01-27T04:21:13.106Z,10.60
2023-01-27T04:21:46.295Z,15.70
2023-01-27T04:22:18.319Z,13.45
2023-01-27T04:22:50.144Z,10.45
2023-01-27T04:23:22.901Z,13.65
2023-01-27T04:23:54.874Z,12.05
2023-01-27T04:24:28.307Z,11.25
2023-01-27T04:25:00.135Z,11.40
2023-01-27T04:25:31.913Z,11.13
2023-01-27T04:26:03.792Z,11.80
2023-01-27T04:26:36.826Z,14.50
2023-01-27T04:27:10.424Z,12.32
2023-01-27T04:27:44.974Z,11.02
2023-01-27T04:28:22.313Z,14.73
2023-01-27T04:29:01.344Z,11.85
2023-01-27T04:29:36.927Z,11.25
2023-01-27T04:30:10.156Z,12.55
2023-01-27T04:30:41.962Z,12.48
2023-01-27T04:31:14.678Z,13.55
2023-01-27T04:31:47.829Z,10.55
2023-01-27T04:32:19.707Z,11.25
2023-01-27T04:32:51.542Z,11.63
2023-01-27T04:33:24.449Z,13.50
2023-01-27T04:33:56.491Z,11.38
2023-01-27T04:34:29.768Z,11.25
2023-01-27T04:35:01.631Z,11.45
2023-01-27T04:35:38.579Z,10.63
2023-01-27T04:36:11.244Z,11.02
2023-01-27T04:36:44.109Z,10.52
2023-01-27T04:37:15.944Z,11.63
2023-01-27T04:37:48.686Z,11.95
2023-01-27T04:38:20.482Z,13.50
2023-01-27T04:38:52.264Z,10.60
2023-01-27T04:39:25.547Z,11.45
2023-01-27T04:39:57.474Z,10.32
2023-01-27T04:40:29.273Z,15.10
2023-01-27T04:41:01.165Z,9.63
2023-01-27T04:41:33.961Z,12.93
2023-01-27T04:42:05.846Z,11.23
2023-01-27T04:42:37.661Z,11.43
2023-01-27T04:43:11.791Z,11.48
2023-01-27T04:43:43.726Z,10.63
2023-01-27T04:44:16.007Z,10.20
2023-01-27T04:44:48.824Z,12.35
2023-01-27T04:45:20.659Z,11.00
2023-01-27T04:45:52.499Z,10.80
2023-01-27T04:46:25.313Z,11.52
2023-01-27T04:46:57.125Z,12.65
2023-01-27T04:47:28.929Z,9.90
2023-01-27T04:48:01.750Z,10.95
2023-01-27T04:48:34.452Z,11.23
2023-01-27T04:49:06.875Z,10.80
2023-01-27T04:49:39.643Z,11.50
2023-01-27T04:50:12.078Z,11.65
2023-01-27T04:50:43.972Z,11.70
2023-01-27T04:51:15.846Z,12.20
2023-01-27T04:51:48.770Z,13.75
2023-01-27T04:52:20.628Z,16.52
2023-01-27T04:52:52.422Z,13.23
2023-01-27T04:53:24.246Z,11.98
2023-01-27T04:53:57.412Z,11.20
2023-01-27T04:54:29.212Z,10.10
2023-01-27T04:55:01.086Z,12.40
2023-01-27T04:55:33.939Z,12.20
2023-01-27T04:56:14.997Z,10.93
2023-01-27T04:56:56.098Z,10.50
2023-01-27T04:57:28.969Z,10.95
2023-01-27T04:58:01.345Z,13.15
2023-01-27T04:58:34.516Z,12.18
2023-01-27T04:59:09.587Z,11.02
2023-01-27T04:59:41.550Z,11.43
2023-01-27T05:00:16.497Z,13.32
2023-01-27T05:00:49.378Z,10.50
2023-01-27T05:01:21.588Z,10.15
2023-01-27T05:01:53.472Z,8.95
2023-01-27T05:02:26.405Z,10.32
2023-01-27T05:02:58.460Z,14.20
2023-01-27T05:03:30.340Z,11.30
2023-01-27T05:04:03.197Z,12.55
2023-01-27T05:04:34.981Z,10.00
2023-01-27T05:05:07.629Z,11.02
2023-01-27T05:05:39.488Z,14.27
2023-01-27T05:06:12.915Z,12.68
2023-01-27T05:06:44.747Z,11.07
2023-01-27T05:07:17.558Z,12.82
2023-01-27T05:07:49.326Z,12.75
2023-01-27T05:08:21.157Z,10.60
2023-01-27T05:08:55.337Z,13.57
2023-01-27T05:09:27.216Z,11.40
2023-01-27T05:09:59.361Z,12.93
2023-01-27T05:10:31.223Z,10.77
2023-01-27T05:11:04.037Z,13.43
2023-01-27T05:11:35.867Z,14.27
2023-01-27T05:12:08.771Z,8.38
2023-01-27T05:12:40.610Z,11.68
2023-01-27T05:13:12.721Z,11.60
2023-01-27T05:13:46.954Z,11.45
2023-01-27T05:14:19.485Z,10.15
2023-01-27T05:14:51.333Z,11.93
2023-01-27T05:15:24.737Z,16.38
2023-01-27T05:16:05.005Z,10.68
2023-01-27T05:16:40.086Z,12.90
2023-01-27T05:17:11.902Z,13.48
2023-01-27T05:17:43.783Z,14.85
2023-01-27T05:18:16.686Z,11.00
2023-01-27T05:18:49.832Z,11.90
2023-01-27T05:19:22.690Z,11.45
2023-01-27T05:19:54.556Z,11.95
2023-01-27T05:20:26.361Z,12.63
2023-01-27T05:20:59.956Z,10.10
2023-01-27T05:21:32.693Z,9.05
2023-01-27T05:22:04.480Z,10.70
2023-01-27T05:22:36.335Z,10.63
2023-01-27T05:23:26.514Z,11.25
2023-01-27T05:23:59.393Z,12.98
2023-01-27T05:24:31.354Z,12.80
2023-01-27T05:25:03.693Z,13.38
2023-01-27T05:25:35.925Z,12.73
2023-01-27T05:26:12.218Z,12.25
2023-01-27T05:26:44.128Z,10.30
2023-01-27T05:27:17.070Z,11.57
2023-01-27T05:27:49.877Z,11.70
2023-01-27T05:28:21.753Z,9.55
2023-01-27T05:28:57.816Z,12.60
2023-01-27T05:29:30.582Z,11.02
2023-01-27T05:30:02.830Z,11.93
2023-01-27T05:30:34.840Z,11.40
2023-01-27T05:31:10.488Z,15.43
2023-01-27T05:31:42.472Z,14.40
2023-01-27T05:32:14.416Z,10.82
2023-01-27T05:32:48.126Z,14.18
2023-01-27T05:33:19.924Z,19.08
2023-01-27T05:33:54.801Z,9.95
2023-01-27T05:34:26.677Z,12.00
2023-01-27T05:34:58.507Z,11.98
2023-01-27T05:35:33.502Z,21.67
2023-01-27T05:36:06.858Z,16.92
2023-01-27T05:36:38.671Z,13.93
2023-01-27T05:37:11.438Z,12.13
2023-01-27T05:37:43.234Z,13.77
2023-01-27T05:38:15.044Z,14.40
2023-01-27T05:38:48.240Z,12.07
2023-01-27T05:39:20.086Z,13.30
2023-01-27T05:39:51.979Z,11.93
2023-01-27T05:40:24.763Z,13.45
2023-01-27T05:40:58.328Z,12.82
2023-01-27T05:41:31.022Z,13.05
2023-01-27T05:42:03.911Z,13.30
2023-01-27T05:42:35.692Z,14.10
2023-01-27T05:43:07.524Z,14.73
2023-01-27T05:43:42.285Z,14.02
2023-01-27T05:44:15.662Z,15.90
2023-01-27T05:44:49.138Z,13.00
2023-01-27T05:45:23.101Z,13.38
2023-01-27T05:46:02.373Z,16.00
2023-01-27T05:46:35.274Z,11.90
2023-01-27T05:47:07.093Z,15.80
2023-01-27T05:47:38.982Z,12.43
2023-01-27T05:48:11.781Z,11.85
2023-01-27T05:48:45.378Z,13.43
2023-01-27T05:49:18.315Z,17.80
2023-01-27T05:49:50.166Z,12.63
2023-01-27T05:50:21.967Z,18.75
2023-01-27T05:50:56.659Z,18.05
2023-01-27T05:51:31.039Z,18.88
2023-01-27T05:52:03.992Z,16.83
2023-01-27T05:52:35.823Z,13.95
2023-01-27T05:53:07.620Z,13.88
2023-01-27T05:53:40.398Z,13.85
2023-01-27T05:54:12.278Z,14.95
2023-01-27T05:54:44.077Z,14.90
2023-01-27T05:55:16.981Z,14.02
2023-01-27T05:55:49.005Z,14.00
2023-01-27T05:56:21.737Z,18.27
2023-01-27T05:56:55.574Z,12.30
2023-01-27T05:57:28.185Z,13.77
2023-01-27T05:57:59.980Z,12.85
2023-01-27T05:58:33.422Z,13.90
2023-01-27T05:59:05.283Z,11.07
2023-01-27T05:59:38.431Z,14.85
2023-01-27T06:00:12.449Z,14.35
2023-01-27T06:00:45.188Z,13.52
2023-01-27T06:01:19.305Z,9.82
2023-01-27T06:01:52.164Z,13.25
2023-01-27T06:02:24.053Z,16.85
2023-01-27T06:02:56.101Z,14.40
2023-01-27T06:03:28.974Z,15.38
2023-01-27T06:04:01.357Z,13.52
2023-01-27T06:04:33.216Z,12.85
2023-01-27T06:05:06.743Z,12.40
2023-01-27T06:05:38.634Z,14.70
2023-01-27T06:06:14.493Z,12.57
2023-01-27T06:06:47.465Z,13.57
2023-01-27T06:07:19.349Z,13.18
2023-01-27T06:07:51.141Z,13.18
2023-01-27T06:08:24.391Z,15.45
2023-01-27T06:08:57.487Z,11.77
2023-01-27T06:09:29.312Z,13.13
2023-01-27T06:10:01.150Z,13.00
2023-01-27T06:10:37.088Z,12.32
2023-01-27T06:11:09.453Z,16.23
2023-01-27T06:11:42.200Z,14.32
2023-01-27T06:12:14.055Z,14.75
2023-01-27T06:12:45.884Z,15.52
2023-01-27T06:13:19.557Z,12.70
2023-01-27T06:13:53.205Z,12.77
2023-01-27T06:14:25.974Z,14.48
2023-01-27T06:15:00.215Z,13.30
2023-01-27T06:15:32.045Z,12.98
2023-01-27T06:16:06.010Z,15.73
2023-01-27T06:16:38.135Z,11.82
2023-01-27T06:17:10.005Z,15.55
2023-01-27T06:17:42.837Z,13.13
2023-01-27T06:18:15.724Z,15.35
2023-01-27T06:18:48.190Z,12.23
2023-01-27T06:19:20.961Z,14.15
2023-01-27T06:19:52.788Z,13.10
2023-01-27T06:20:25.372Z,15.05
2023-01-27T06:20:59.399Z,14.30
2023-01-27T06:21:31.217Z,14.55
2023-01-27T06:22:03.031Z,12.40
2023-01-27T06:22:35.853Z,10.73
2023-01-27T06:23:08.304Z,12.70
2023-01-27T06:23:40.418Z,14.88
2023-01-27T06:24:13.848Z,12.10
2023-01-27T06:24:45.799Z,12.85
2023-01-27T06:25:17.703Z,13.20
2023-01-27T06:25:50.527Z,17.23
2023-01-27T06:26:22.426Z,15.50
2023-01-27T06:26:56.739Z,15.82
2023-01-27T06:27:28.591Z,18.23
2023-01-27T06:28:00.415Z,53.63
2023-01-27T06:28:33.213Z,55.42
2023-01-27T06:29:05.040Z,36.65
2023-01-27T06:29:37.861Z,29.05
2023-01-27T06:30:12.248Z,17.85
2023-01-27T06:30:45.343Z,19.65
2023-01-27T06:31:19.714Z,17.63
2023-01-27T06:31:51.666Z,15.90
2023-01-27T06:32:24.469Z,16.92
2023-01-27T06:32:56.353Z,15.15
2023-01-27T06:33:28.186Z,16.60
2023-01-27T06:34:01.035Z,15.32
2023-01-27T06:34:32.851Z,14.60
2023-01-27T06:35:05.602Z,13.50
2023-01-27T06:35:39.974Z,15.57
2023-01-27T06:36:14.142Z,16.00
2023-01-27T06:36:46.972Z,15.68
2023-01-27T06:37:18.772Z,14.50
2023-01-27T06:37:51.751Z,16.70
2023-01-27T06:38:23.622Z,14.25
2023-01-27T06:38:56.459Z,16.33
2023-01-27T06:39:28.310Z,13.65
2023-01-27T06:40:00.138Z,16.02
2023-01-27T06:40:34.058Z,17.17
2023-01-27T06:41:06.139Z,13.10
2023-01-27T06:41:38.499Z,14.48
2023-01-27T06:42:11.281Z,15.93
2023-01-27T06:42:43.677Z,14.95
2023-01-27T06:43:16.452Z,14.63
2023-01-27T06:43:48.455Z,16.35
2023-01-27T06:44:20.312Z,15.30
2023-01-27T06:44:53.100Z,13.70
2023-01-27T06:45:26.819Z,15.45
2023-01-27T06:45:58.841Z,16.17
2023-01-27T06:46:31.759Z,16.75
2023-01-27T06:47:03.674Z,17.25
2023-01-27T06:47:35.485Z,20.30
2023-01-27T06:48:09.309Z,18.10
2023-01-27T06:48:41.120Z,21.35
2023-01-27T06:49:15.125Z,14.75
2023-01-27T06:49:46.888Z,15.65
2023-01-27T06:50:18.953Z,17.52
2023-01-27T06:50:51.853Z,18.25
2023-01-27T06:51:23.692Z,16.48
2023-01-27T06:51:55.524Z,22.63
2023-01-27T06:52:28.556Z,21.65
2023-01-27T06:53:01.318Z,20.17
2023-01-27T06:53:35.436Z,16.63
2023-01-27T06:54:07.293Z,18.77
2023-01-27T06:54:39.194Z,15.13
2023-01-27T06:55:12.007Z,15.95
2023-01-27T06:55:44.763Z,16.77
2023-01-27T06:56:17.600Z,17.77
2023-01-27T06:56:50.428Z,23.88
2023-01-27T06:57:22.298Z,17.88
2023-01-27T06:57:54.253Z,17.13
2023-01-27T06:58:27.543Z,20.00
2023-01-27T06:58:59.423Z,18.83
2023-01-27T06:59:31.257Z,20.60
2023-01-27T07:00:05.553Z,19.83
2023-01-27T07:00:39.751Z,20.27
2023-01-27T07:01:12.605Z,21.80
2023-01-27T07:01:44.568Z,16.85
2023-01-27T07:02:16.505Z,19.95
2023-01-27T07:02:49.720Z,18.55
2023-01-27T07:03:22.006Z,22.85
2023-01-27T07:03:53.833Z,20.48
2023-01-27T07:04:26.697Z,19.00
2023-01-27T07:04:58.478Z,21.80
2023-01-27T07:05:31.715Z,15.18
2023-01-27T07:06:03.753Z,18.52
2023-01-27T07:06:36.505Z,16.77
2023-01-27T07:07:08.327Z,17.83
2023-01-27T07:07:40.311Z,16.60
2023-01-27T07:08:13.061Z,17.95
2023-01-27T07:08:46.890Z,21.23
2023-01-27T07:09:18.719Z,18.13
2023-01-27T07:09:52.900Z,18.10
2023-01-27T07:10:25.012Z,22.67
2023-01-27T07:10:56.855Z,20.65
2023-01-27T07:11:29.669Z,18.35
2023-01-27T07:12:02.085Z,19.50
2023-01-27T07:12:37.593Z,18.27
2023-01-27T07:13:12.384Z,21.25
2023-01-27T07:13:44.484Z,20.23
2023-01-27T07:14:16.401Z,17.55
2023-01-27T07:14:49.179Z,20.60
2023-01-27T07:15:21.091Z,18.63
2023-01-27T07:15:57.301Z,19.17
2023-01-27T07:16:30.470Z,19.70
2023-01-27T07:17:02.379Z,17.77
2023-01-27T07:17:34.568Z,20.15
2023-01-27T07:18:08.013Z,18.48
2023-01-27T07:18:39.831Z,21.52
2023-01-27T07:19:12.519Z,27.30
2023-01-27T07:19:45.330Z,30.08
2023-01-27T07:20:17.514Z,27.48
2023-01-27T07:20:50.280Z,23.42
2023-01-27T07:21:22.210Z,22.88
2023-01-27T07:21:55.030Z,21.10
2023-01-27T07:22:27.001Z,19.58